Time;durP1;ratioP1;P1;durP2;ratioP2;P2;SDS_P1;SDS_P2;PMS_P1;PMS_P2;Temp;Humidity;BMP_temperature;BMP_pressure;BME280_temperature;BME280_humidity;BME280_pressure;Samples;Min_cycle;Max_cycle;Signal;HPM_P1;HPM_P2
2023/08/12 02:00:15;;;;;;;11.17;10.47;;;21.50;35.20;;;;;;6226887;22;20488;-74
2023/08/12 02:02:41;;;;;;;10.27;9.50;;;21.50;35.40;;;;;;6218301;23;20390;-75
2023/08/12 02:05:06;;;;;;;9.90;9.30;;;21.50;35.60;;;;;;6218559;23;20436;-75
2023/08/12 02:07:32;;;;;;;11.10;10.40;;;21.50;35.60;;;;;;6246145;23;20144;-74
2023/08/12 02:09:57;;;;;;;11.10;10.50;;;21.50;35.80;;;;;;6245533;22;20187;-74
2023/08/12 02:12:23;;;;;;;10.27;9.70;;;21.50;35.70;;;;;;6245782;23;20209;-75
2023/08/12 02:14:48;;;;;;;10.67;10.07;;;21.50;35.80;;;;;;6246148;23;20155;-75
2023/08/12 02:17:14;;;;;;;11.70;10.90;;;21.50;36.00;;;;;;6218725;23;20230;-76
2023/08/12 02:19:39;;;;;;;12.20;11.30;;;21.40;36.00;;;;;;6217529;22;20267;-76
2023/08/12 02:22:05;;;;;;;12.17;11.30;;;21.50;36.00;;;;;;6244408;23;20603;-75
2023/08/12 02:24:30;;;;;;;11.80;11.00;;;21.40;36.00;;;;;;6244567;23;20485;-74
2023/08/12 02:26:56;;;;;;;11.00;10.40;;;21.50;36.10;;;;;;6244418;23;20265;-75
2023/08/12 02:29:22;;;;;;;10.80;9.90;;;21.50;36.00;;;;;;6217129;22;20216;-75
2023/08/12 02:31:47;;;;;;;12.90;11.17;;;21.50;36.10;;;;;;6244489;23;20147;-74
2023/08/12 02:34:13;;;;;;;11.20;10.40;;;21.50;36.00;;;;;;6244356;23;20147;-76
2023/08/12 02:36:38;;;;;;;11.23;10.40;;;21.40;36.00;;;;;;6244441;23;20144;-75
2023/08/12 02:39:04;;;;;;;10.90;9.90;;;21.40;35.90;;;;;;6244210;23;20627;-76
2023/08/12 02:41:30;;;;;;;10.83;10.20;;;21.50;35.80;;;;;;6244310;22;20236;-76
2023/08/12 02:43:56;;;;;;;10.60;10.00;;;21.40;35.80;;;;;;6217491;23;20871;-75
2023/08/12 02:46:21;;;;;;;10.20;9.60;;;21.50;35.70;;;;;;6244414;23;20227;-75
2023/08/12 02:48:47;;;;;;;10.17;9.57;;;21.50;35.60;;;;;;6245246;23;20171;-75
2023/08/12 02:51:13;;;;;;;10.10;9.50;;;21.50;35.50;;;;;;6246294;22;20206;-75
2023/08/12 02:53:39;;;;;;;10.63;9.90;;;21.50;35.70;;;;;;6246592;23;20831;-75
2023/08/12 02:56:05;;;;;;;9.97;9.27;;;21.40;35.60;;;;;;6246342;23;20362;-76
2023/08/12 02:58:30;;;;;;;11.00;10.20;;;21.40;35.70;;;;;;6219222;23;20294;-75
2023/08/12 03:00:56;;;;;;;10.17;9.20;;;21.40;35.70;;;;;;6239579;22;20201;-75
2023/08/12 03:03:22;;;;;;;10.27;9.47;;;21.40;35.60;;;;;;6246162;23;20155;-75
2023/08/12 03:05:48;;;;;;;9.40;8.90;;;21.50;35.70;;;;;;6246277;23;20152;-76
2023/08/12 03:08:14;;;;;;;9.90;9.30;;;21.40;36.40;;;;;;6245968;22;20147;-75
2023/08/12 03:10:39;;;;;;;10.50;9.90;;;21.40;35.70;;;;;;6246159;22;20443;-75
2023/08/12 03:13:05;;;;;;;10.40;9.70;;;21.50;35.80;;;;;;6246165;23;20201;-75
2023/08/12 03:15:30;;;;;;;10.60;9.80;;;21.50;35.70;;;;;;6246221;23;20607;-75
2023/08/12 03:17:57;;;;;;;10.17;9.57;;;21.50;35.70;;;;;;6245984;23;20148;-76
2023/08/12 03:20:22;;;;;;;9.77;9.20;;;21.50;35.80;;;;;;6246099;22;20171;-74
2023/08/12 03:22:48;;;;;;;10.80;10.03;;;21.50;35.80;;;;;;6246100;23;20925;-75
2023/08/12 03:25:15;;;;;;;10.80;9.77;;;21.40;35.70;;;;;;6245892;23;20234;-75
2023/08/12 03:27:41;;;;;;;10.97;10.37;;;21.50;35.80;;;;;;6246186;22;20166;-76
2023/08/12 03:30:07;;;;;;;9.73;9.07;;;21.40;35.80;;;;;;6243973;22;20430;-76
2023/08/12 03:32:33;;;;;;;11.00;10.30;;;21.40;36.00;;;;;;6245986;22;20439;-76
2023/08/12 03:34:58;;;;;;;10.60;9.47;;;21.40;36.00;;;;;;6244528;23;21052;-76
2023/08/12 03:37:24;;;;;;;9.80;9.20;;;21.40;36.30;;;;;;6246021;23;20148;-76
2023/08/12 03:39:50;;;;;;;10.07;9.47;;;21.40;36.30;;;;;;6246035;22;20224;-76
2023/08/12 03:42:16;;;;;;;10.40;9.73;;;21.40;36.30;;;;;;6246193;22;20757;-75
2023/08/12 03:44:42;;;;;;;10.43;9.77;;;21.50;36.20;;;;;;6245937;22;20223;-75
2023/08/12 03:47:08;;;;;;;10.60;10.03;;;21.40;35.90;;;;;;6244364;23;20473;-76
2023/08/12 03:49:33;;;;;;;10.93;10.10;;;21.40;35.80;;;;;;6245421;22;20905;-75
2023/08/12 03:51:59;;;;;;;10.63;9.93;;;21.50;35.80;;;;;;6245931;23;20143;-76
2023/08/12 03:54:25;;;;;;;10.10;9.60;;;21.40;35.70;;;;;;6244111;23;20508;-75
2023/08/12 03:56:50;;;;;;;10.77;9.97;;;21.50;35.70;;;;;;6245821;23;20154;-76
2023/08/12 03:59:16;;;;;;;10.20;9.70;;;21.50;35.70;;;;;;6243220;23;20170;-75
2023/08/12 04:01:41;;;;;;;10.17;9.50;;;21.50;35.70;;;;;;6245696;22;20167;-76
2023/08/12 04:04:07;;;;;;;10.77;9.70;;;21.50;35.60;;;;;;6244196;23;20178;-76
2023/08/12 04:06:32;;;;;;;10.70;10.10;;;21.50;35.40;;;;;;6244011;23;20151;-74
2023/08/12 04:08:58;;;;;;;10.17;9.47;;;21.50;35.40;;;;;;6245551;23;20487;-74
2023/08/12 04:11:23;;;;;;;10.00;9.40;;;21.50;35.40;;;;;;6245597;22;20167;-76
2023/08/12 04:13:49;;;;;;;10.47;9.83;;;21.50;35.30;;;;;;6245814;23;20143;-75
2023/08/12 04:16:14;;;;;;;9.90;9.50;;;21.50;35.50;;;;;;6218674;23;20163;-76
2023/08/12 04:18:40;;;;;;;10.17;9.30;;;21.50;35.40;;;;;;6245011;23;20152;-74
2023/08/12 04:21:05;;;;;;;10.70;10.20;;;21.50;35.40;;;;;;6218678;23;20172;-76
2023/08/12 04:23:31;;;;;;;9.57;9.03;;;21.50;35.70;;;;;;6245385;23;20190;-76
2023/08/12 04:25:56;;;;;;;10.47;9.83;;;21.60;35.00;;;;;;6246039;23;20242;-76
2023/08/12 04:28:22;;;;;;;10.77;10.07;;;21.60;35.20;;;;;;6245248;23;20158;-76
2023/08/12 04:30:50;;;;;;;10.47;9.70;;;21.50;35.10;;;;;;6245350;22;20178;-75
2023/08/12 04:33:16;;;;;;;9.47;8.97;;;21.60;35.20;;;;;;6245192;23;20151;-75
2023/08/12 04:35:41;;;;;;;10.87;10.27;;;21.60;35.20;;;;;;6217915;23;20401;-75
2023/08/12 04:38:07;;;;;;;10.10;9.30;;;21.60;35.20;;;;;;6243315;23;20587;-75
2023/08/12 04:40:32;;;;;;;10.37;9.77;;;21.60;35.10;;;;;;6244493;22;20171;-75
2023/08/12 04:42:59;;;;;;;10.10;9.60;;;21.50;35.10;;;;;;6218691;23;20596;-76
2023/08/12 04:45:24;;;;;;;9.60;9.03;;;21.60;34.90;;;;;;6245012;23;20159;-75
2023/08/12 04:47:50;;;;;;;10.47;9.90;;;21.60;35.00;;;;;;6219434;23;20386;-75
2023/08/12 04:50:16;;;;;;;9.93;9.43;;;21.60;34.80;;;;;;6244173;22;20243;-74
2023/08/12 04:52:41;;;;;;;9.90;9.40;;;21.60;35.20;;;;;;6245042;23;20201;-74
2023/08/12 04:55:07;;;;;;;10.00;9.50;;;21.60;35.10;;;;;;6244905;23;20465;-76
2023/08/12 04:57:33;;;;;;;11.00;10.40;;;21.60;35.00;;;;;;6218071;23;20156;-75
2023/08/12 04:59:58;;;;;;;10.40;9.80;;;21.60;35.00;;;;;;6225764;22;20233;-75
2023/08/12 05:02:24;;;;;;;10.07;9.57;;;21.60;34.70;;;;;;6244499;23;20152;-75
2023/08/12 05:04:50;;;;;;;10.40;9.80;;;21.60;34.90;;;;;;6245002;23;20205;-75
2023/08/12 05:07:16;;;;;;;10.77;10.07;;;21.60;35.00;;;;;;6244885;22;20155;-75
2023/08/12 05:09:43;;;;;;;10.43;9.93;;;21.60;35.10;;;;;;6243018;22;20436;-76
2023/08/12 05:12:10;;;;;;;10.50;10.00;;;21.60;35.50;;;;;;6243126;23;20155;-75
2023/08/12 05:14:36;;;;;;;10.50;9.80;;;21.60;35.80;;;;;;6243361;23;20389;-74
2023/08/12 05:17:01;;;;;;;11.00;10.40;;;21.60;36.30;;;;;;6244983;23;21029;-75
2023/08/12 05:19:27;;;;;;;10.50;9.80;;;21.60;36.90;;;;;;6244575;22;20155;-75
2023/08/12 05:21:52;;;;;;;10.97;10.37;;;21.60;37.20;;;;;;6243179;23;20608;-75
2023/08/12 05:24:18;;;;;;;11.50;10.70;;;21.60;37.90;;;;;;6244699;23;20148;-75
2023/08/12 05:26:43;;;;;;;11.80;11.10;;;21.60;38.00;;;;;;6242901;23;20143;-75
2023/08/12 05:29:09;;;;;;;11.40;10.70;;;21.60;38.20;;;;;;6244757;23;20504;-75
2023/08/12 05:31:34;;;;;;;10.70;10.10;;;21.60;38.30;;;;;;6244897;22;20189;-75
2023/08/12 05:34:00;;;;;;;12.10;11.17;;;21.60;37.80;;;;;;6245135;23;20237;-76
2023/08/12 05:36:25;;;;;;;10.97;10.37;;;21.60;37.40;;;;;;6245151;23;20152;-77
2023/08/12 05:38:51;;;;;;;10.70;10.10;;;21.60;37.00;;;;;;6242439;23;20563;-76
2023/08/12 05:41:16;;;;;;;11.73;11.03;;;21.60;37.60;;;;;;6244812;22;20171;-76
2023/08/12 05:43:42;;;;;;;11.30;10.40;;;21.60;38.30;;;;;;6245167;23;20224;-76
2023/08/12 05:46:07;;;;;;;11.67;10.87;;;21.60;38.80;;;;;;6244800;23;20238;-76
2023/08/12 05:48:33;;;;;;;14.07;12.73;;;21.60;39.50;;;;;;6244402;23;20546;-76
2023/08/12 05:50:58;;;;;;;11.13;10.53;;;21.60;41.10;;;;;;6244584;22;20254;-76
2023/08/12 05:53:24;;;;;;;11.03;10.30;;;21.60;41.70;;;;;;6244679;23;20227;-75
2023/08/12 05:55:49;;;;;;;11.97;11.07;;;21.60;41.70;;;;;;6244365;23;20198;-75
2023/08/12 05:58:15;;;;;;;11.00;10.30;;;21.60;41.70;;;;;;6243263;22;20631;-75
2023/08/12 06:00:45;;;;;;;11.07;10.43;;;21.60;42.50;;;;;;6244153;22;20214;-75
2023/08/12 06:03:11;;;;;;;11.57;10.87;;;21.60;41.70;;;;;;6242841;23;20231;-76
2023/08/12 06:05:36;;;;;;;11.60;10.77;;;21.60;42.50;;;;;;6242216;23;20421;-75
2023/08/12 06:08:02;;;;;;;10.83;10.20;;;21.60;42.50;;;;;;6214878;23;20850;-76
2023/08/12 06:10:28;;;;;;;11.33;10.20;;;21.60;41.90;;;;;;6242432;22;20197;-76
2023/08/12 06:12:53;;;;;;;12.03;11.23;;;21.60;41.80;;;;;;6242006;23;20158;-76
2023/08/12 06:15:19;;;;;;;11.07;10.30;;;21.60;41.40;;;;;;6242364;23;20486;-75
2023/08/12 06:17:45;;;;;;;12.07;11.10;;;21.60;41.70;;;;;;6242513;23;20174;-74
2023/08/12 06:20:11;;;;;;;11.10;10.50;;;21.60;41.70;;;;;;6216618;23;20178;-75
2023/08/12 06:22:37;;;;;;;11.20;10.50;;;21.60;41.70;;;;;;6244228;23;20759;-76
2023/08/12 06:25:03;;;;;;;12.07;11.27;;;21.60;41.70;;;;;;6217467;23;20433;-75
2023/08/12 06:27:28;;;;;;;11.43;10.63;;;21.60;41.70;;;;;;6217462;23;20205;-75
2023/08/12 06:29:54;;;;;;;11.40;10.50;;;21.60;42.40;;;;;;6243973;22;20250;-76
2023/08/12 06:32:19;;;;;;;12.20;11.30;;;21.60;42.80;;;;;;6244230;23;20144;-76
2023/08/12 06:34:44;;;;;;;12.10;11.20;;;21.60;42.60;;;;;;6244192;23;20154;-76
2023/08/12 06:37:10;;;;;;;11.17;10.47;;;21.60;43.10;;;;;;6244289;23;20151;-77
2023/08/12 06:39:35;;;;;;;11.23;10.23;;;21.60;43.10;;;;;;6217134;22;20611;-76
2023/08/12 06:42:01;;;;;;;11.10;10.30;;;21.60;42.90;;;;;;6244182;23;20147;-76
2023/08/12 06:44:26;;;;;;;11.27;10.67;;;21.60;42.70;;;;;;6244174;23;20147;-76
2023/08/12 06:46:52;;;;;;;10.90;10.30;;;21.70;43.10;;;;;;6244288;23;20151;-77
2023/08/12 06:49:18;;;;;;;10.83;10.13;;;21.70;42.90;;;;;;6243912;23;20186;-77
2023/08/12 06:51:43;;;;;;;10.87;9.90;;;21.70;43.30;;;;;;6217348;23;20179;-75
2023/08/12 06:54:09;;;;;;;10.80;10.30;;;21.70;43.00;;;;;;6244240;23;20610;-76
2023/08/12 06:56:34;;;;;;;11.20;10.60;;;21.80;43.50;;;;;;6244666;23;20254;-76
2023/08/12 06:59:00;;;;;;;11.40;10.70;;;21.80;43.40;;;;;;6244127;23;20481;-76
2023/08/12 07:01:25;;;;;;;11.80;11.10;;;21.80;42.40;;;;;;6217510;23;20179;-76
2023/08/12 07:03:51;;;;;;;12.20;11.47;;;21.90;42.80;;;;;;6244206;23;20155;-76
2023/08/12 07:06:16;;;;;;;12.13;11.23;;;21.90;42.20;;;;;;6217919;23;20529;-76
2023/08/12 07:08:42;;;;;;;12.47;11.67;;;21.90;42.00;;;;;;6247503;23;20547;-76
2023/08/12 07:11:07;;;;;;;11.10;10.40;;;22.00;42.00;;;;;;6248434;22;20164;-76
2023/08/12 07:13:33;;;;;;;10.90;10.20;;;22.00;41.10;;;;;;6247346;23;20154;-77
2023/08/12 07:15:59;;;;;;;11.27;10.60;;;22.10;39.60;;;;;;6220681;23;20155;-77
2023/08/12 07:18:24;;;;;;;11.70;10.90;;;22.20;40.60;;;;;;6220920;23;20714;-77
2023/08/12 07:20:50;;;;;;;11.23;10.43;;;22.20;41.00;;;;;;6219764;23;20185;-76
2023/08/12 07:23:15;;;;;;;11.93;10.93;;;22.30;40.90;;;;;;6244979;23;20183;-77
2023/08/12 07:25:41;;;;;;;11.43;10.60;;;22.30;40.80;;;;;;6217487;23;20147;-77
2023/08/12 07:28:07;;;;;;;10.97;10.37;;;22.30;40.20;;;;;;6244615;23;20151;-76
2023/08/12 07:30:35;;;;;;;11.63;10.70;;;22.30;39.80;;;;;;6216908;23;20191;-75
2023/08/12 07:33:02;;;;;;;11.10;10.50;;;22.40;39.90;;;;;;6243813;23;20701;-77
2023/08/12 07:35:27;;;;;;;11.10;10.50;;;22.40;39.60;;;;;;6244919;23;20362;-76
2023/08/12 07:37:53;;;;;;;10.73;10.13;;;22.40;39.50;;;;;;6244383;23;20230;-76
2023/08/12 07:40:18;;;;;;;11.27;10.57;;;22.50;39.30;;;;;;6245421;22;20175;-76
2023/08/12 07:42:44;;;;;;;11.40;10.70;;;22.50;38.80;;;;;;6246053;23;20213;-76
2023/08/12 07:45:09;;;;;;;12.40;11.47;;;22.60;38.10;;;;;;6245951;23;20600;-76
2023/08/12 07:47:35;;;;;;;10.50;10.00;;;22.70;37.60;;;;;;6245933;23;20155;-76
2023/08/12 07:50:00;;;;;;;10.30;9.70;;;22.80;37.60;;;;;;6245305;22;20187;-76
2023/08/12 07:52:26;;;;;;;11.13;10.30;;;22.80;37.20;;;;;;6219181;23;20174;-77
2023/08/12 07:54:51;;;;;;;11.43;10.60;;;22.90;36.10;;;;;;6246320;23;20144;-77
2023/08/12 07:57:17;;;;;;;10.80;10.20;;;23.00;35.30;;;;;;6245910;23;20478;-76
2023/08/12 07:59:42;;;;;;;12.43;11.70;;;23.10;34.80;;;;;;6245501;22;20183;-77
2023/08/12 08:02:08;;;;;;;12.17;11.40;;;23.10;34.70;;;;;;6246083;23;20152;-76
2023/08/12 08:04:34;;;;;;;11.40;10.90;;;23.20;34.40;;;;;;6247221;23;20152;-77
2023/08/12 08:07:00;;;;;;;12.30;11.50;;;23.30;34.20;;;;;;6246042;23;20233;-75
2023/08/12 08:09:25;;;;;;;12.07;11.20;;;23.30;34.00;;;;;;6219756;22;20273;-76
2023/08/12 08:11:51;;;;;;;12.70;12.00;;;23.40;34.40;;;;;;6220116;23;20418;-76
2023/08/12 08:14:16;;;;;;;12.13;11.53;;;23.50;33.50;;;;;;6246679;23;20184;-76
2023/08/12 08:16:42;;;;;;;12.70;12.00;;;23.50;33.90;;;;;;6247419;23;20600;-77
2023/08/12 08:19:09;;;;;;;12.73;11.93;;;23.60;34.00;;;;;;6245919;23;20183;-75
2023/08/12 08:21:35;;;;;;;13.43;12.43;;;23.70;33.40;;;;;;6245925;22;20250;-76
2023/08/12 08:24:00;;;;;;;12.37;11.67;;;23.90;32.10;;;;;;6245980;23;20385;-76
2023/08/12 08:26:26;;;;;;;12.63;11.93;;;24.10;32.10;;;;;;6246080;23;20378;-75
2023/08/12 08:28:52;;;;;;;13.40;12.70;;;24.20;31.10;;;;;;6246002;23;20178;-75
2023/08/12 08:31:17;;;;;;;11.97;11.30;;;24.20;31.20;;;;;;6219102;23;20233;-76
2023/08/12 08:33:43;;;;;;;12.10;11.30;;;24.30;31.20;;;;;;6219087;23;20488;-76
2023/08/12 08:36:09;;;;;;;13.47;12.60;;;24.30;31.40;;;;;;6245594;23;20673;-76
2023/08/12 08:38:34;;;;;;;12.93;12.13;;;24.30;30.70;;;;;;6218713;23;20155;-75
2023/08/12 08:41:01;;;;;;;12.60;12.00;;;24.30;30.50;;;;;;6245719;22;20213;-76
2023/08/12 08:43:28;;;;;;;13.73;12.87;;;24.30;30.50;;;;;;6245517;23;20171;-75
2023/08/12 08:45:54;;;;;;;13.70;12.50;;;24.40;30.40;;;;;;6217955;23;20764;-76
2023/08/12 08:48:20;;;;;;;12.57;11.87;;;24.40;30.80;;;;;;6218360;23;20435;-76
2023/08/12 08:50:48;;;;;;;13.40;12.60;;;24.50;30.00;;;;;;6245120;22;20438;-76
2023/08/12 08:53:15;;;;;;;12.70;12.10;;;24.50;30.30;;;;;;6246017;23;20826;-76
2023/08/12 08:55:41;;;;;;;12.03;11.23;;;24.50;30.00;;;;;;6248216;23;20374;-74
2023/08/12 08:58:07;;;;;;;12.63;11.93;;;24.50;30.00;;;;;;6253456;23;20370;-75
2023/08/12 09:00:32;;;;;;;13.57;12.70;;;24.50;29.70;;;;;;6255275;22;20547;-76
2023/08/12 09:02:58;;;;;;;16.60;12.83;;;24.50;29.40;;;;;;6256608;23;20182;-76
2023/08/12 09:05:25;;;;;;;12.27;11.53;;;24.90;27.80;;;;;;6223679;23;20158;-76
2023/08/12 09:07:51;;;;;;;18.47;11.23;;;25.20;27.40;;;;;;6245558;23;20148;-75
2023/08/12 09:10:20;;;;;;;11.87;11.07;;;25.30;26.90;;;;;;6244903;22;20956;-76
2023/08/12 09:12:46;;;;;;;11.90;11.30;;;25.40;27.10;;;;;;6245080;23;20386;-75
2023/08/12 09:15:12;;;;;;;11.67;10.97;;;25.50;26.90;;;;;;6245286;23;20816;-76
2023/08/12 09:17:38;;;;;;;10.87;10.17;;;25.50;26.60;;;;;;6245111;23;20371;-76
2023/08/12 09:20:11;;;;;;;11.80;10.80;;;25.60;25.80;;;;;;6245407;22;20175;-76
2023/08/12 09:22:36;;;;;;;10.97;10.27;;;25.70;26.00;;;;;;6245302;23;20127;-77
2023/08/12 09:25:04;;;;;;;11.60;10.80;;;25.80;25.50;;;;;;6245080;23;20413;-75
2023/08/12 09:27:31;;;;;;;11.47;10.70;;;26.00;24.40;;;;;;6218081;23;20213;-75
2023/08/12 09:29:57;;;;;;;11.60;10.90;;;26.00;24.00;;;;;;6243694;22;20579;-75
2023/08/12 09:32:23;;;;;;;10.77;10.10;;;26.00;24.50;;;;;;6244838;23;20378;-76
2023/08/12 09:34:49;;;;;;;10.80;10.20;;;26.10;24.10;;;;;;6245244;23;20893;-76
2023/08/12 09:37:15;;;;;;;11.80;11.10;;;26.20;23.70;;;;;;6218016;23;20663;-76
2023/08/12 09:39:42;;;;;;;10.27;9.67;;;26.40;24.00;;;;;;6245078;22;20413;-76
2023/08/12 09:42:08;;;;;;;11.87;11.13;;;26.60;22.60;;;;;;6244959;23;20554;-76
2023/08/12 09:44:37;;;;;;;11.07;10.40;;;27.00;21.30;;;;;;6244985;23;20382;-76
2023/08/12 09:47:03;;;;;;;10.50;9.80;;;27.30;20.60;;;;;;6217754;23;20391;-76
2023/08/12 09:49:29;;;;;;;10.87;10.10;;;27.40;19.80;;;;;;6244500;22;20425;-76
2023/08/12 09:51:55;;;;;;;11.00;10.40;;;27.50;19.90;;;;;;6244749;23;20374;-75
2023/08/12 09:54:21;;;;;;;9.80;9.30;;;27.40;19.40;;;;;;6245049;23;20413;-76
2023/08/12 09:56:49;;;;;;;10.37;9.77;;;27.30;19.50;;;;;;6244956;23;20455;-75
2023/08/12 09:59:22;;;;;;;10.57;9.93;;;27.20;20.50;;;;;;6244819;23;20398;-76
2023/08/12 10:01:50;;;;;;;10.27;9.70;;;27.00;20.30;;;;;;6244691;23;20355;-76
2023/08/12 10:04:18;;;;;;;11.90;10.80;;;27.00;20.50;;;;;;6244813;23;20381;-76
2023/08/12 10:06:44;;;;;;;10.50;9.73;;;26.90;25.00;;;;;;6244878;23;20452;-76
2023/08/12 10:09:11;;;;;;;9.50;8.90;;;26.90;26.40;;;;;;6244539;23;20421;-76
2023/08/12 10:11:37;;;;;;;8.67;8.07;;;26.90;27.80;;;;;;6217731;23;20735;-76
2023/08/12 10:14:03;;;;;;;9.30;8.80;;;26.70;27.20;;;;;;6244820;23;20849;-76
2023/08/12 10:16:29;;;;;;;9.70;9.00;;;26.50;27.80;;;;;;6244227;23;20388;-76
2023/08/12 10:18:57;;;;;;;9.50;8.90;;;26.20;28.80;;;;;;6244473;23;21051;-76
2023/08/12 10:21:24;;;;;;;8.83;8.43;;;26.00;29.70;;;;;;6244596;22;20178;-77
2023/08/12 10:23:50;;;;;;;9.77;9.30;;;25.90;33.50;;;;;;6244710;23;20398;-77
2023/08/12 10:26:17;;;;;;;10.17;9.67;;;26.10;32.50;;;;;;6244578;23;21207;-76
2023/08/12 10:28:43;;;;;;;11.20;10.60;;;26.00;31.60;;;;;;6244273;23;20834;-76
2023/08/12 10:31:11;;;;;;;10.70;10.00;;;25.90;31.50;;;;;;6244529;22;20405;-76
2023/08/12 10:33:37;;;;;;;9.40;8.90;;;26.00;34.20;;;;;;6244742;23;20518;-76
2023/08/12 10:36:04;;;;;;;10.07;9.30;;;25.90;33.30;;;;;;6244407;23;20370;-76
2023/08/12 10:38:31;;;;;;;10.43;9.83;;;25.90;33.50;;;;;;6244420;23;20703;-76
2023/08/12 10:41:16;;;;;;;11.30;10.60;;;26.20;35.00;;;;;;6244910;22;20482;-76
2023/08/12 10:44:02;;;;;;;11.37;10.57;;;26.40;31.30;;;;;;6244794;23;20377;-76
2023/08/12 10:46:34;;;;;;;10.33;9.83;;;26.70;26.20;;;;;;6244776;23;20354;-75
2023/08/12 10:49:23;;;;;;;11.33;10.60;;;26.90;26.60;;;;;;6244065;23;20417;-76
2023/08/12 10:51:51;;;;;;;10.50;9.97;;;26.90;27.90;;;;;;6232316;23;20382;-76
2023/08/12 10:54:30;;;;;;;10.97;10.27;;;26.70;27.20;;;;;;6244362;23;20783;-76
2023/08/12 10:57:01;;;;;;;9.33;8.80;;;26.60;27.20;;;;;;6244723;23;20365;-77
2023/08/12 10:59:45;;;;;;;9.90;9.27;;;26.60;27.60;;;;;;6243938;22;20390;-75
2023/08/12 11:02:26;;;;;;;9.87;9.27;;;26.90;23.10;;;;;;6244811;23;20379;-76
2023/08/12 11:05:03;;;;;;;10.00;9.40;;;27.20;23.20;;;;;;6218090;23;20428;-76
2023/08/12 11:07:42;;;;;;;10.00;9.30;;;27.50;22.20;;;;;;6244745;23;20445;-76
2023/08/12 11:10:15;;;;;;;8.90;8.40;;;27.40;21.60;;;;;;6245612;22;20425;-76
2023/08/12 11:12:47;;;;;;;9.50;9.00;;;27.70;19.60;;;;;;6220092;23;20420;-76
2023/08/12 11:15:13;;;;;;;8.90;8.40;;;27.90;19.50;;;;;;6246403;23;20842;-76
2023/08/12 11:17:43;;;;;;;8.77;8.37;;;28.10;19.40;;;;;;6246477;23;20370;-76
2023/08/12 11:20:10;;;;;;;8.73;8.13;;;28.50;17.30;;;;;;6246038;22;20171;-76
2023/08/12 11:22:38;;;;;;;7.83;7.40;;;28.70;16.50;;;;;;6246324;23;20698;-76
2023/08/12 11:25:09;;;;;;;8.27;7.77;;;28.80;16.00;;;;;;6246174;23;20397;-76
2023/08/12 11:27:47;;;;;;;8.53;7.90;;;28.60;16.20;;;;;;6246433;23;20371;-76
2023/08/12 11:30:17;;;;;;;7.30;7.00;;;28.50;16.50;;;;;;6245890;22;20479;-76
2023/08/12 11:32:47;;;;;;;9.07;8.20;;;28.40;17.30;;;;;;6249700;23;20543;-76
2023/08/12 11:35:15;;;;;;;8.23;7.73;;;28.20;18.10;;;;;;6250418;23;20515;-76
2023/08/12 11:37:44;;;;;;;7.97;7.53;;;28.40;16.30;;;;;;6225310;23;20386;-75
2023/08/12 11:40:11;;;;;;;7.90;7.47;;;28.50;16.20;;;;;;6249868;22;20461;-75
2023/08/12 11:42:39;;;;;;;8.27;7.60;;;28.70;15.70;;;;;;6249417;23;20416;-76
2023/08/12 11:45:06;;;;;;;8.10;7.50;;;28.90;15.80;;;;;;6247305;23;20378;-76
2023/08/12 11:47:32;;;;;;;8.40;8.00;;;29.10;14.90;;;;;;6221424;23;20421;-75
2023/08/12 11:49:58;;;;;;;8.60;8.03;;;29.30;14.30;;;;;;6245772;22;20426;-76
2023/08/12 11:52:23;;;;;;;7.97;7.40;;;29.40;14.70;;;;;;6246095;23;20152;-75
2023/08/12 11:54:50;;;;;;;8.70;8.20;;;29.60;13.80;;;;;;6245819;23;20150;-75
2023/08/12 11:57:16;;;;;;;10.30;8.23;;;29.60;13.80;;;;;;6245757;23;20155;-75
2023/08/12 11:59:42;;;;;;;9.20;8.50;;;29.60;14.00;;;;;;6245695;22;20887;-75
2023/08/12 12:02:07;;;;;;;8.80;8.27;;;29.50;14.50;;;;;;6245674;23;20385;-76
2023/08/12 12:04:34;;;;;;;8.80;8.40;;;29.30;14.80;;;;;;6246142;23;20508;-76
2023/08/12 12:07:05;;;;;;;9.90;9.20;;;29.20;15.10;;;;;;6245688;23;20147;-76
2023/08/12 12:09:31;;;;;;;11.03;10.33;;;28.90;16.70;;;;;;6245477;22;20446;-76
2023/08/12 12:11:57;;;;;;;9.90;9.27;;;28.60;21.00;;;;;;6245385;23;20374;-76
2023/08/12 12:14:24;;;;;;;11.10;10.40;;;28.20;22.10;;;;;;6245845;23;20694;-76
2023/08/12 12:16:50;;;;;;;10.70;10.20;;;27.80;23.90;;;;;;6246333;23;20144;-75
2023/08/12 12:19:21;;;;;;;10.80;10.10;;;27.40;24.70;;;;;;6253335;23;20381;-74
2023/08/12 12:21:52;;;;;;;9.23;8.83;;;27.10;26.10;;;;;;6253761;23;20469;-74
2023/08/12 12:24:18;;;;;;;11.50;10.53;;;26.80;27.20;;;;;;6249778;23;21001;-74
2023/08/12 12:26:45;;;;;;;11.20;10.40;;;26.40;31.30;;;;;;6247510;23;20385;-75
2023/08/12 12:29:13;;;;;;;10.20;9.47;;;26.10;32.40;;;;;;6245016;23;20448;-76
2023/08/12 12:31:41;;;;;;;10.43;9.73;;;25.70;32.70;;;;;;6245848;22;20397;-76
2023/08/12 12:34:09;;;;;;;10.70;10.00;;;25.50;35.00;;;;;;6245450;23;20393;-75
2023/08/12 12:36:36;;;;;;;9.73;9.13;;;25.20;37.90;;;;;;6245321;23;20371;-75
2023/08/12 12:39:03;;;;;;;10.20;9.70;;;25.00;38.80;;;;;;6245403;23;20413;-75
2023/08/12 12:41:28;;;;;;;11.07;10.47;;;24.70;39.30;;;;;;6245479;22;20397;-75
2023/08/12 12:43:54;;;;;;;10.10;9.60;;;24.50;41.10;;;;;;6218618;23;20447;-77
2023/08/12 12:46:20;;;;;;;10.03;9.50;;;24.30;41.70;;;;;;6245603;23;20210;-74
2023/08/12 12:48:45;;;;;;;10.23;9.53;;;24.10;46.80;;;;;;6245102;23;20546;-74
2023/08/12 12:51:12;;;;;;;9.80;8.60;;;23.90;50.00;;;;;;6245301;22;20544;-75
2023/08/12 12:53:38;;;;;;;8.90;8.40;;;23.80;51.30;;;;;;6218605;23;20206;-75
2023/08/12 12:56:04;;;;;;;9.13;8.53;;;23.60;52.10;;;;;;6218136;23;20375;-75
2023/08/12 12:58:35;;;;;;;9.17;8.53;;;23.50;51.90;;;;;;6244879;23;20905;-75
2023/08/12 13:01:01;;;;;;;8.80;8.30;;;23.50;53.50;;;;;;6244976;22;20273;-74
2023/08/12 13:03:27;;;;;;;9.90;9.30;;;23.40;55.00;;;;;;6245251;23;20390;-75
2023/08/12 13:05:52;;;;;;;9.97;9.23;;;23.40;54.30;;;;;;6245115;23;20381;-75
2023/08/12 13:08:18;;;;;;;9.87;9.27;;;23.40;55.20;;;;;;6244999;23;20913;-75
2023/08/12 13:10:44;;;;;;;10.23;9.50;;;23.50;55.60;;;;;;6245027;22;20476;-75
2023/08/12 13:13:09;;;;;;;10.10;9.50;;;23.50;56.50;;;;;;6245473;23;20707;-75
2023/08/12 13:15:35;;;;;;;10.27;9.50;;;23.50;59.40;;;;;;6245471;23;20150;-75
2023/08/12 13:18:01;;;;;;;9.17;8.67;;;23.50;59.00;;;;;;6245064;23;20150;-75
2023/08/12 13:20:27;;;;;;;10.00;9.40;;;23.50;59.20;;;;;;6245046;22;20690;-75
2023/08/12 13:22:52;;;;;;;9.80;9.20;;;23.50;60.10;;;;;;6245003;23;20735;-74
2023/08/12 13:25:18;;;;;;;9.20;8.60;;;23.50;59.40;;;;;;6244872;23;20151;-75
2023/08/12 13:27:43;;;;;;;9.77;9.17;;;23.50;59.20;;;;;;6244906;23;20155;-74
2023/08/12 13:30:11;;;;;;;10.03;9.43;;;23.50;59.30;;;;;;6244755;22;20631;-74
2023/08/12 13:32:37;;;;;;;10.63;9.93;;;23.50;60.40;;;;;;6244675;23;20147;-77
2023/08/12 13:35:03;;;;;;;10.23;9.63;;;23.50;60.50;;;;;;6244907;23;20846;-74
2023/08/12 13:37:28;;;;;;;9.87;9.27;;;23.40;60.80;;;;;;6244567;23;20397;-75
2023/08/12 13:39:54;;;;;;;10.43;9.83;;;23.40;61.20;;;;;;6244594;22;20382;-75
2023/08/12 13:42:19;;;;;;;10.37;9.70;;;23.40;61.70;;;;;;6244412;23;20151;-76
2023/08/12 13:44:45;;;;;;;11.93;9.70;;;23.40;61.90;;;;;;6244620;23;20151;-75
2023/08/12 13:47:10;;;;;;;10.03;9.43;;;23.40;60.00;;;;;;6244684;23;20150;-75
2023/08/12 13:49:36;;;;;;;10.20;9.40;;;23.40;59.90;;;;;;6244442;22;20234;-74
2023/08/12 13:52:01;;;;;;;10.60;9.90;;;23.50;60.00;;;;;;6244602;23;20144;-77
2023/08/12 13:54:27;;;;;;;11.10;10.50;;;23.50;59.90;;;;;;6244831;23;20166;-75
2023/08/12 13:56:52;;;;;;;9.90;9.20;;;23.60;59.10;;;;;;6217857;23;20179;-74
2023/08/12 13:59:18;;;;;;;12.43;11.63;;;23.60;58.60;;;;;;6244241;23;20189;-75
2023/08/12 14:01:43;;;;;;;11.80;10.90;;;23.60;58.50;;;;;;6244752;22;20175;-75
2023/08/12 14:04:09;;;;;;;11.87;11.07;;;23.60;58.80;;;;;;6217793;23;20246;-75
2023/08/12 14:06:34;;;;;;;12.93;11.97;;;23.70;59.30;;;;;;6245132;23;20163;-75
2023/08/12 14:09:00;;;;;;;10.77;10.07;;;23.70;59.70;;;;;;6244102;23;20178;-76
2023/08/12 14:11:25;;;;;;;11.60;10.70;;;23.70;60.20;;;;;;6244303;22;20623;-75
2023/08/12 14:13:51;;;;;;;10.37;9.70;;;23.70;60.60;;;;;;6244724;23;20144;-75
2023/08/12 14:16:17;;;;;;;10.00;9.30;;;23.80;60.00;;;;;;6217642;23;20151;-74
2023/08/12 14:18:42;;;;;;;11.80;11.00;;;23.80;56.00;;;;;;6244710;23;20217;-75
2023/08/12 14:21:07;;;;;;;11.00;10.40;;;23.90;52.90;;;;;;6244376;22;20230;-76
2023/08/12 14:23:33;;;;;;;11.07;10.37;;;24.10;51.10;;;;;;6244362;23;20155;-74
2023/08/12 14:25:58;;;;;;;10.07;9.47;;;24.10;50.40;;;;;;6244280;23;20171;-75
2023/08/12 14:28:24;;;;;;;9.97;9.10;;;24.10;51.50;;;;;;6244278;23;20147;-75